Time;durP1;ratioP1;P1;durP2;ratioP2;P2;SDS_P1;SDS_P2;PMS_P1;PMS_P2;Temp;Humidity;BMP_temperature;BMP_pressure;BME280_temperature;BME280_humidity;BME280_pressure;Samples;Min_cycle;Max_cycle;Signal;HPM_P1;HPM_P2
2022/10/06 00:02:21;;;;;;;4.17;2.93;;;14.60;99.90;;;;;;5029173;28;20744;-70
2022/10/06 00:04:46;;;;;;;3.90;3.17;;;14.60;99.90;;;;;;5024716;28;20674;-70
2022/10/06 00:07:12;;;;;;;4.37;3.43;;;14.60;99.90;;;;;;5031088;28;20203;-70
2022/10/06 00:09:37;;;;;;;3.93;3.63;;;14.60;99.90;;;;;;5024129;28;20188;-69
2022/10/06 00:12:03;;;;;;;3.60;3.30;;;14.60;99.90;;;;;;5030949;28;20230;-70
2022/10/06 00:14:29;;;;;;;3.27;3.07;;;14.60;99.90;;;;;;5024704;28;20416;-71
2022/10/06 00:16:54;;;;;;;3.60;3.30;;;14.70;99.90;;;;;;5023712;28;20204;-71
2022/10/06 00:19:20;;;;;;;5.80;3.60;;;14.70;99.90;;;;;;5024884;28;20344;-70
2022/10/06 00:21:45;;;;;;;4.50;3.27;;;14.70;99.90;;;;;;5022812;28;20211;-69
2022/10/06 00:24:11;;;;;;;6.23;3.50;;;14.70;99.90;;;;;;5024292;28;20180;-70
2022/10/06 00:26:36;;;;;;;3.33;3.13;;;14.80;99.90;;;;;;5024994;28;20192;-72
2022/10/06 00:29:02;;;;;;;4.03;3.37;;;14.80;99.90;;;;;;5024342;28;20184;-71
2022/10/06 00:31:28;;;;;;;4.10;3.70;;;14.80;99.90;;;;;;5034314;28;20776;-72
2022/10/06 00:33:54;;;;;;;3.53;3.07;;;14.80;99.90;;;;;;5027741;28;20665;-71
2022/10/06 00:36:20;;;;;;;4.17;3.77;;;14.80;99.90;;;;;;5038230;28;20295;-72
2022/10/06 00:38:45;;;;;;;6.17;3.17;;;14.90;99.90;;;;;;5026594;28;20199;-72
2022/10/06 00:41:12;;;;;;;4.90;3.50;;;15.00;99.90;;;;;;5033925;28;20227;-72
2022/10/06 00:43:47;;;;;;;3.57;3.30;;;15.10;99.90;;;;;;5027455;28;20203;-73
2022/10/06 00:46:18;;;;;;;3.53;3.27;;;15.10;99.90;;;;;;5040785;28;20195;-73
2022/10/06 00:48:46;;;;;;;3.70;2.80;;;15.10;99.90;;;;;;5024910;28;20199;-73
2022/10/06 00:51:13;;;;;;;3.13;2.93;;;15.20;99.90;;;;;;5029874;28;20239;-73
2022/10/06 00:53:39;;;;;;;6.03;2.90;;;15.20;99.90;;;;;;5021573;28;20212;-73
2022/10/06 00:56:04;;;;;;;3.73;3.10;;;15.30;99.90;;;;;;5029262;28;20654;-73
2022/10/06 00:58:31;;;;;;;3.57;3.27;;;15.30;99.90;;;;;;5028566;28;20329;-73
2022/10/06 01:00:58;;;;;;;5.33;3.70;;;15.30;99.90;;;;;;5031087;28;20725;-69
2022/10/06 01:03:30;;;;;;;3.57;3.27;;;15.30;99.90;;;;;;5029658;28;20762;-68
2022/10/06 01:05:57;;;;;;;3.57;2.90;;;15.30;99.90;;;;;;5025597;28;20179;-69
2022/10/06 01:08:23;;;;;;;3.37;3.17;;;15.30;99.90;;;;;;5027292;28;20804;-70
2022/10/06 01:10:48;;;;;;;4.57;3.33;;;15.40;99.90;;;;;;5033969;28;20689;-68
2022/10/06 01:13:14;;;;;;;3.30;2.80;;;15.50;99.90;;;;;;5026036;28;20219;-69
2022/10/06 01:15:50;;;;;;;6.17;3.10;;;15.60;99.90;;;;;;5030605;28;20275;-69
2022/10/06 01:18:19;;;;;;;2.80;2.57;;;15.70;99.90;;;;;;5025249;28;20215;-71
2022/10/06 01:20:55;;;;;;;4.60;3.13;;;15.80;99.90;;;;;;5030204;28;20275;-70
2022/10/06 01:23:21;;;;;;;4.53;3.27;;;15.80;99.90;;;;;;5022897;28;20207;-71
2022/10/06 01:25:47;;;;;;;3.23;2.67;;;15.80;99.90;;;;;;5033330;28;20196;-70
2022/10/06 01:28:13;;;;;;;4.37;2.60;;;15.80;99.90;;;;;;5028265;28;20242;-70
2022/10/06 01:30:49;;;;;;;2.50;2.13;;;15.90;99.90;;;;;;5027897;28;21000;-69
2022/10/06 01:33:16;;;;;;;3.33;3.03;;;15.90;99.90;;;;;;5017110;28;20261;-71
2022/10/06 01:35:45;;;;;;;3.10;2.90;;;16.00;99.90;;;;;;5028591;28;20249;-70
2022/10/06 01:38:10;;;;;;;3.07;2.83;;;16.00;99.90;;;;;;5031333;28;20608;-70
2022/10/06 01:40:36;;;;;;;3.57;2.80;;;15.90;99.90;;;;;;5029991;28;20194;-70
2022/10/06 01:43:01;;;;;;;2.97;2.77;;;15.90;99.90;;;;;;5031841;28;20619;-70
2022/10/06 01:45:26;;;;;;;3.40;2.90;;;15.80;99.90;;;;;;5031660;28;20199;-70
2022/10/06 01:47:52;;;;;;;5.60;3.83;;;15.80;99.90;;;;;;5025970;28;20235;-71
2022/10/06 01:50:17;;;;;;;6.97;4.10;;;15.70;99.90;;;;;;5027094;28;20215;-70
2022/10/06 01:52:43;;;;;;;3.47;2.80;;;15.60;99.90;;;;;;5025983;28;20223;-71
2022/10/06 01:55:08;;;;;;;5.07;3.13;;;15.60;99.90;;;;;;5029898;28;20275;-71
2022/10/06 01:57:39;;;;;;;3.63;3.23;;;15.60;99.90;;;;;;5027727;28;20757;-70
2022/10/06 02:00:05;;;;;;;3.57;3.20;;;15.60;99.90;;;;;;5033860;28;20218;-70
2022/10/06 02:02:31;;;;;;;3.97;2.90;;;15.50;99.90;;;;;;5029059;28;20261;-70
2022/10/06 02:04:56;;;;;;;3.93;2.93;;;15.50;99.90;;;;;;5026290;28;20195;-70
2022/10/06 02:07:22;;;;;;;3.03;2.77;;;15.50;99.90;;;;;;5036273;28;20205;-70
2022/10/06 02:09:47;;;;;;;3.37;3.13;;;15.40;99.90;;;;;;5027822;28;20600;-70
2022/10/06 02:12:13;;;;;;;3.20;3.00;;;15.30;99.90;;;;;;5033061;28;20250;-70
2022/10/06 02:14:38;;;;;;;4.00;3.13;;;15.30;99.90;;;;;;5025852;28;20179;-71
2022/10/06 02:17:05;;;;;;;3.87;3.10;;;15.30;99.90;;;;;;5032525;28;20220;-70
2022/10/06 02:19:30;;;;;;;2.63;2.43;;;15.20;99.90;;;;;;5028713;28;20187;-70
2022/10/06 02:21:57;;;;;;;4.27;3.87;;;15.20;99.90;;;;;;5023814;28;20568;-70
2022/10/06 02:24:22;;;;;;;3.80;3.03;;;15.20;99.90;;;;;;5026043;28;20222;-70
2022/10/06 02:26:48;;;;;;;3.63;3.33;;;15.10;99.90;;;;;;5025724;28;20227;-70
2022/10/06 02:29:13;;;;;;;4.63;3.57;;;15.20;99.90;;;;;;5019218;28;20191;-71
2022/10/06 02:31:39;;;;;;;3.77;3.47;;;15.20;99.90;;;;;;5030442;28;20207;-71
2022/10/06 02:34:04;;;;;;;2.90;2.70;;;15.20;99.90;;;;;;5023829;28;20179;-71
2022/10/06 02:36:30;;;;;;;4.23;3.10;;;15.20;99.90;;;;;;5035161;28;20188;-71
2022/10/06 02:38:56;;;;;;;3.00;2.80;;;15.20;99.90;;;;;;5024845;28;20198;-69
2022/10/06 02:41:22;;;;;;;3.20;3.00;;;15.20;99.90;;;;;;5035090;28;20666;-73
2022/10/06 02:43:47;;;;;;;3.20;3.00;;;15.20;99.90;;;;;;5024873;28;20295;-69
2022/10/06 02:46:13;;;;;;;3.40;3.20;;;15.20;99.90;;;;;;5027962;28;20202;-70
2022/10/06 02:48:40;;;;;;;4.80;3.17;;;15.20;99.90;;;;;;5026700;28;20526;-70
2022/10/06 02:51:10;;;;;;;3.80;3.50;;;15.30;99.90;;;;;;5027388;28;20239;-70
2022/10/06 02:53:36;;;;;;;4.50;3.67;;;15.30;99.90;;;;;;5022911;28;20216;-69
2022/10/06 02:56:05;;;;;;;3.03;2.73;;;15.30;99.90;;;;;;5027703;28;20223;-69
2022/10/06 02:58:31;;;;;;;3.67;3.37;;;15.30;99.90;;;;;;5030082;28;20585;-70
2022/10/06 03:01:04;;;;;;;4.67;3.27;;;15.40;99.90;;;;;;5028986;28;20195;-70
2022/10/06 03:03:31;;;;;;;5.43;3.20;;;15.40;99.90;;;;;;5029945;28;20214;-70
2022/10/06 03:06:04;;;;;;;3.87;3.30;;;15.40;99.90;;;;;;5029618;28;20195;-68
2022/10/06 03:08:29;;;;;;;3.60;3.30;;;15.50;99.90;;;;;;5027803;28;20670;-69
2022/10/06 03:11:02;;;;;;;3.60;3.30;;;15.60;99.90;;;;;;5030008;28;20258;-69
2022/10/06 03:13:29;;;;;;;3.23;3.03;;;15.60;99.90;;;;;;5009740;28;20673;-68
2022/10/06 03:15:55;;;;;;;3.57;2.93;;;15.70;99.90;;;;;;5025804;28;20199;-68
2022/10/06 03:18:21;;;;;;;3.23;2.93;;;15.70;99.90;;;;;;5021070;28;20210;-69
2022/10/06 03:20:47;;;;;;;3.27;2.60;;;15.80;99.90;;;;;;5028799;28;20278;-71
2022/10/06 03:23:12;;;;;;;5.47;3.90;;;15.80;99.90;;;;;;5025373;28;20231;-70
2022/10/06 03:25:38;;;;;;;3.10;2.90;;;15.90;99.90;;;;;;5027905;28;20225;-70
2022/10/06 03:28:03;;;;;;;3.53;3.10;;;16.00;99.90;;;;;;5031639;28;20290;-70
2022/10/06 03:30:29;;;;;;;4.10;2.83;;;16.00;99.90;;;;;;5027424;28;20207;-70
2022/10/06 03:32:54;;;;;;;5.77;3.10;;;16.00;99.90;;;;;;5027466;28;20219;-70
2022/10/06 03:35:20;;;;;;;3.43;3.10;;;16.10;99.90;;;;;;5024760;28;20190;-70
2022/10/06 03:37:45;;;;;;;3.33;2.97;;;16.10;99.90;;;;;;5024868;28;20511;-70
2022/10/06 03:40:11;;;;;;;3.27;2.97;;;16.20;99.90;;;;;;5024826;28;20636;-69
2022/10/06 03:42:36;;;;;;;2.77;2.57;;;16.20;99.90;;;;;;5023449;28;20689;-69
2022/10/06 03:45:02;;;;;;;3.27;2.87;;;16.20;99.90;;;;;;5024858;28;20525;-70
2022/10/06 03:47:32;;;;;;;3.80;2.83;;;16.20;99.90;;;;;;5025209;28;20677;-70
2022/10/06 03:49:57;;;;;;;3.60;2.70;;;16.20;99.90;;;;;;5024679;28;20201;-70
2022/10/06 03:52:23;;;;;;;3.40;2.90;;;16.20;99.90;;;;;;5023018;28;20705;-69
2022/10/06 03:54:48;;;;;;;3.00;2.80;;;16.20;99.90;;;;;;5025243;28;20199;-70
2022/10/06 03:57:13;;;;;;;4.37;2.30;;;16.20;99.90;;;;;;5028845;28;20184;-69
2022/10/06 03:59:39;;;;;;;3.63;2.63;;;16.20;99.90;;;;;;5024520;28;21047;-70
2022/10/06 04:02:04;;;;;;;3.43;2.30;;;16.10;99.90;;;;;;5033207;28;20191;-69
2022/10/06 04:04:30;;;;;;;3.73;2.80;;;16.10;99.90;;;;;;5022765;28;20215;-69
2022/10/06 04:06:55;;;;;;;2.70;2.03;;;16.10;99.90;;;;;;5037123;28;20196;-69
2022/10/06 04:09:21;;;;;;;2.97;2.77;;;16.10;99.90;;;;;;5027602;28;20281;-70
2022/10/06 04:11:47;;;;;;;2.83;2.60;;;16.10;99.90;;;;;;5038312;28;20580;-69
2022/10/06 04:14:14;;;;;;;4.10;2.30;;;16.10;99.90;;;;;;5028693;28;20192;-69
2022/10/06 04:16:46;;;;;;;2.20;2.10;;;16.10;99.90;;;;;;5028899;28;20187;-71
2022/10/06 04:19:13;;;;;;;2.50;2.30;;;16.10;99.90;;;;;;5023311;28;20228;-71
2022/10/06 04:21:40;;;;;;;4.20;2.77;;;16.00;99.90;;;;;;5028323;28;20202;-71
2022/10/06 04:24:06;;;;;;;3.30;1.60;;;16.00;99.90;;;;;;5030350;28;20207;-70
2022/10/06 04:26:35;;;;;;;5.17;1.77;;;16.00;99.90;;;;;;5031137;28;20195;-71
2022/10/06 04:29:00;;;;;;;1.63;1.50;;;15.90;99.90;;;;;;5027157;28;20261;-72
2022/10/06 04:31:29;;;;;;;1.37;1.33;;;15.90;99.90;;;;;;5036540;28;20207;-72
2022/10/06 04:33:56;;;;;;;2.00;1.67;;;15.90;99.90;;;;;;5017774;28;20308;-71
2022/10/06 04:36:24;;;;;;;2.63;1.40;;;16.00;99.90;;;;;;5029318;28;20191;-70
2022/10/06 04:38:55;;;;;;;1.50;1.40;;;16.00;99.90;;;;;;5026729;28;20253;-72
2022/10/06 04:41:22;;;;;;;1.43;1.00;;;16.00;99.90;;;;;;5039802;28;20306;-72
2022/10/06 04:43:49;;;;;;;2.07;1.40;;;16.00;99.90;;;;;;5031263;28;20208;-72
2022/10/06 04:46:16;;;;;;;1.37;1.10;;;16.00;99.90;;;;;;5029829;28;20265;-72
2022/10/06 04:48:41;;;;;;;2.67;1.23;;;16.00;99.90;;;;;;5031250;28;20213;-72
2022/10/06 04:51:11;;;;;;;1.07;0.87;;;16.00;99.90;;;;;;5029509;28;20211;-72
2022/10/06 04:53:37;;;;;;;3.23;1.27;;;16.00;99.90;;;;;;5016417;28;20215;-72
2022/10/06 04:56:10;;;;;;;0.80;0.80;;;15.90;99.90;;;;;;5029149;28;20238;-71
2022/10/06 04:58:38;;;;;;;1.90;0.80;;;15.90;99.90;;;;;;5029597;28;20200;-70
2022/10/06 05:01:17;;;;;;;1.10;0.97;;;15.90;99.90;;;;;;5030905;28;20196;-72
2022/10/06 05:03:44;;;;;;;1.20;1.20;;;15.80;99.90;;;;;;5018168;28;20214;-70
2022/10/06 05:06:12;;;;;;;0.90;0.90;;;15.80;99.90;;;;;;5030344;28;20290;-70
2022/10/06 05:08:38;;;;;;;1.17;0.87;;;15.80;99.90;;;;;;5032712;28;20373;-71
2022/10/06 05:11:10;;;;;;;2.73;1.13;;;15.70;99.90;;;;;;5031946;28;20211;-71
2022/10/06 05:13:36;;;;;;;1.20;0.87;;;15.70;99.90;;;;;;5032580;28;20241;-71
2022/10/06 05:16:04;;;;;;;0.87;0.53;;;15.70;99.90;;;;;;5031109;28;20259;-70
2022/10/06 05:18:30;;;;;;;3.00;0.90;;;15.70;99.90;;;;;;5033643;28;20743;-71
2022/10/06 05:21:02;;;;;;;3.57;1.30;;;15.60;99.90;;;;;;5029614;28;20285;-70
2022/10/06 05:23:29;;;;;;;2.77;0.97;;;15.60;99.90;;;;;;5007141;28;20306;-72
2022/10/06 05:25:57;;;;;;;0.87;0.70;;;15.60;99.90;;;;;;5011502;28;20180;-70
2022/10/06 05:28:24;;;;;;;2.77;0.90;;;15.60;99.90;;;;;;5025095;28;20195;-69
2022/10/06 05:31:13;;;;;;;2.20;0.80;;;15.60;99.90;;;;;;5026139;28;20179;-70
2022/10/06 05:33:39;;;;;;;0.70;0.60;;;15.60;99.90;;;;;;5023225;28;20199;-69
2022/10/06 05:36:08;;;;;;;3.20;1.13;;;15.50;99.90;;;;;;5026558;28;20195;-71
2022/10/06 05:38:33;;;;;;;1.93;0.87;;;15.50;99.90;;;;;;5026502;28;20655;-69
2022/10/06 05:41:09;;;;;;;1.83;0.67;;;15.40;99.90;;;;;;5027063;28;20668;-68
2022/10/06 05:43:34;;;;;;;2.60;0.57;;;15.30;99.90;;;;;;5026261;28;20290;-70
2022/10/06 05:46:02;;;;;;;0.90;0.50;;;15.30;99.90;;;;;;5026146;28;20271;-72
2022/10/06 05:48:28;;;;;;;3.50;0.60;;;15.30;99.90;;;;;;5025163;28;20195;-69
2022/10/06 05:51:02;;;;;;;1.73;0.70;;;15.20;99.90;;;;;;5027852;28;20293;-69
2022/10/06 05:53:28;;;;;;;1.27;0.87;;;15.10;99.90;;;;;;5020648;28;20287;-69
2022/10/06 05:56:09;;;;;;;4.97;1.20;;;15.00;99.90;;;;;;5025758;28;20187;-73
2022/10/06 05:58:36;;;;;;;0.97;0.63;;;15.00;99.90;;;;;;5027755;28;20265;-73
2022/10/06 06:01:15;;;;;;;1.80;0.60;;;14.90;99.90;;;;;;5026288;28;20253;-74
2022/10/06 06:03:46;;;;;;;1.37;0.50;;;14.80;99.90;;;;;;5025356;28;20206;-75
2022/10/06 06:06:17;;;;;;;1.23;0.80;;;14.80;99.90;;;;;;5022754;28;20187;-75
2022/10/06 06:08:43;;;;;;;1.33;0.50;;;14.70;99.90;;;;;;5026497;28;20284;-75
2022/10/06 06:11:09;;;;;;;0.60;0.50;;;14.70;99.90;;;;;;5033439;28;20207;-68
2022/10/06 06:13:35;;;;;;;1.80;0.70;;;14.70;99.90;;;;;;5026871;28;20261;-68
2022/10/06 06:16:03;;;;;;;1.83;0.53;;;14.70;99.90;;;;;;5025681;28;20732;-71
2022/10/06 06:18:34;;;;;;;3.73;0.90;;;14.80;99.90;;;;;;5026838;28;20681;-72
2022/10/06 06:21:02;;;;;;;0.57;0.57;;;14.90;99.90;;;;;;5026649;28;20207;-73
2022/10/06 06:23:33;;;;;;;0.30;0.30;;;14.90;99.90;;;;;;5033055;28;20191;-71
2022/10/06 06:26:00;;;;;;;1.20;0.93;;;14.90;99.90;;;;;;5025610;28;20793;-68
2022/10/06 06:28:28;;;;;;;0.97;0.60;;;14.90;99.90;;;;;;5028743;28;20752;-67
2022/10/06 06:31:11;;;;;;;0.40;0.40;;;15.00;99.90;;;;;;5024555;28;20821;-67
2022/10/06 06:33:39;;;;;;;2.57;0.60;;;15.10;99.90;;;;;;5022566;28;20236;-69
2022/10/06 06:36:13;;;;;;;1.83;0.50;;;15.10;99.90;;;;;;5026975;28;20195;-67
2022/10/06 06:38:39;;;;;;;1.13;0.60;;;15.10;99.90;;;;;;5033687;28;20194;-68
2022/10/06 06:41:15;;;;;;;0.70;0.40;;;15.10;99.90;;;;;;5028680;28;20352;-68
2022/10/06 06:43:41;;;;;;;1.00;0.50;;;15.10;99.90;;;;;;5029726;28;20199;-67
2022/10/06 06:46:07;;;;;;;1.07;0.87;;;15.20;99.90;;;;;;5025490;28;20199;-68
2022/10/06 06:48:34;;;;;;;4.73;0.93;;;15.20;99.90;;;;;;5030115;28;20196;-70
2022/10/06 06:51:00;;;;;;;1.83;0.70;;;15.30;99.90;;;;;;5024732;28;20191;-66
2022/10/06 06:53:25;;;;;;;2.73;1.13;;;15.40;99.90;;;;;;5024995;28;20222;-66
2022/10/06 06:55:51;;;;;;;1.43;0.53;;;15.40;99.90;;;;;;5024723;28;20266;-66
2022/10/06 06:58:18;;;;;;;2.53;0.93;;;15.30;99.90;;;;;;5026295;28;20199;-69
2022/10/06 07:00:44;;;;;;;3.33;1.07;;;15.30;99.90;;;;;;5023638;28;20185;-69
2022/10/06 07:03:12;;;;;;;2.73;0.87;;;15.30;99.90;;;;;;5021918;28;20211;-69
2022/10/06 07:05:38;;;;;;;0.60;0.50;;;15.20;99.90;;;;;;5023589;28;20658;-69
2022/10/06 07:08:07;;;;;;;2.13;0.87;;;15.20;99.90;;;;;;5021517;28;20179;-68
2022/10/06 07:10:35;;;;;;;2.67;1.03;;;15.30;99.90;;;;;;5015654;28;20184;-68
2022/10/06 07:13:00;;;;;;;2.00;1.20;;;15.30;99.90;;;;;;5026235;28;20226;-70
2022/10/06 07:26:22;;;;;;;3.00;0.63;;;15.40;99.90;;;;;;5009923;28;20186;-69
2022/10/06 07:28:48;;;;;;;1.43;0.70;;;15.40;99.90;;;;;;5009471;28;20196;-73
2022/10/06 07:31:16;;;;;;;1.23;0.80;;;15.40;99.90;;;;;;5023907;28;20559;-75
2022/10/06 07:33:42;;;;;;;2.50;1.03;;;15.40;99.90;;;;;;5024159;28;20191;-71
2022/10/06 07:36:08;;;;;;;2.33;1.00;;;15.60;99.90;;;;;;5008297;28;20545;-70
2022/10/06 07:38:35;;;;;;;3.03;0.90;;;15.60;99.90;;;;;;5003582;28;20199;-69
2022/10/06 07:41:00;;;;;;;2.10;0.87;;;15.70;99.90;;;;;;5004974;28;20288;-70
2022/10/06 07:43:26;;;;;;;1.90;0.90;;;15.70;99.90;;;;;;5005453;28;20192;-71
2022/10/06 07:45:51;;;;;;;2.53;0.67;;;15.80;99.90;;;;;;5004874;28;20176;-69
2022/10/06 07:48:21;;;;;;;2.27;0.80;;;15.80;99.90;;;;;;5003306;28;20200;-69
2022/10/06 07:53:33;;;;;;;2.77;0.80;;;15.90;99.90;;;;;;4986632;28;20516;-67
2022/10/06 07:56:06;;;;;;;2.17;0.70;;;15.90;99.90;;;;;;4988772;28;20638;-67
2022/10/06 07:58:32;;;;;;;3.77;1.03;;;16.00;99.90;;;;;;5000078;28;20192;-67
2022/10/06 08:01:07;;;;;;;3.77;1.20;;;16.00;99.90;;;;;;4985037;28;20177;-67
2022/10/06 08:03:33;;;;;;;5.10;1.20;;;16.00;99.90;;;;;;4998210;28;20187;-67
2022/10/06 08:06:00;;;;;;;2.67;0.73;;;16.10;99.90;;;;;;4986986;28;20180;-67
2022/10/06 08:08:28;;;;;;;2.73;1.33;;;16.10;99.90;;;;;;4997169;28;20207;-67
2022/10/06 08:10:56;;;;;;;3.57;1.10;;;16.10;99.90;;;;;;4998451;28;20177;-67
2022/10/06 08:13:22;;;;;;;1.30;0.90;;;16.20;99.90;;;;;;4985400;28;20707;-68
2022/10/06 08:15:49;;;;;;;5.23;1.77;;;16.20;99.90;;;;;;4982638;28;20212;-69
2022/10/06 08:18:15;;;;;;;4.90;1.40;;;16.20;99.90;;;;;;4993726;28;20185;-66
2022/10/06 08:20:41;;;;;;;5.00;0.97;;;16.20;99.90;;;;;;4984053;28;20177;-71
2022/10/06 08:23:08;;;;;;;2.33;0.90;;;16.20;99.90;;;;;;4990329;28;20216;-70
2022/10/06 08:25:41;;;;;;;7.40;1.60;;;16.30;99.90;;;;;;4990362;28;20180;-69
2022/10/06 08:28:07;;;;;;;5.90;1.27;;;16.20;99.90;;;;;;4981241;28;20537;-70
2022/10/06 08:30:33;;;;;;;3.13;1.10;;;16.00;99.90;;;;;;4993583;28;20279;-70
2022/10/06 08:32:59;;;;;;;3.80;1.17;;;16.00;99.90;;;;;;4988137;28;20834;-70
2022/10/06 08:35:24;;;;;;;2.97;1.07;;;15.90;99.90;;;;;;4981752;28;20205;-69
2022/10/06 08:37:50;;;;;;;2.00;0.93;;;15.80;99.90;;;;;;4989317;28;20200;-70
2022/10/06 08:40:15;;;;;;;3.93;0.77;;;15.80;99.90;;;;;;4987128;28;20247;-71
2022/10/06 08:42:44;;;;;;;3.77;0.90;;;15.90;99.90;;;;;;4988092;28;20565;-74
2022/10/06 08:45:23;;;;;;;3.47;1.00;;;16.00;99.90;;;;;;4990984;28;20205;-74
2022/10/06 08:48:12;;;;;;;3.10;1.03;;;16.10;99.90;;;;;;4991182;28;20278;-69
2022/10/06 08:51:05;;;;;;;4.60;1.43;;;16.20;99.90;;;;;;4981295;28;20216;-67
2022/10/06 08:53:39;;;;;;;7.27;1.33;;;16.30;99.90;;;;;;4962440;28;20229;-68
2022/10/06 08:56:17;;;;;;;3.57;1.40;;;16.20;99.90;;;;;;4979575;28;20185;-68
2022/10/06 08:58:57;;;;;;;4.90;1.53;;;16.30;99.90;;;;;;4961134;28;20284;-67
2022/10/06 09:01:29;;;;;;;2.50;1.37;;;16.30;99.90;;;;;;4961564;28;20217;-67
2022/10/06 09:04:02;;;;;;;6.47;1.43;;;16.40;99.90;;;;;;4964996;28;20205;-67
2022/10/06 09:07:09;;;;;;;5.83;1.87;;;16.40;99.90;;;;;;4952863;28;20179;-67
2022/10/06 09:09:55;;;;;;;8.10;2.30;;;16.50;99.90;;;;;;4959223;28;20565;-68
2022/10/06 09:12:31;;;;;;;9.73;3.40;;;16.70;99.90;;;;;;4954118;28;20209;-68
2022/10/06 09:15:21;;;;;;;11.93;6.00;;;16.70;99.90;;;;;;4959772;28;20201;-68
2022/10/06 09:17:54;;;;;;;20.13;8.93;;;16.90;99.90;;;;;;4950935;28;20206;-68
2022/10/06 09:20:36;;;;;;;11.10;5.37;;;17.00;99.90;;;;;;4957144;28;20204;-68
2022/10/06 09:23:05;;;;;;;10.57;4.17;;;17.00;99.90;;;;;;4950769;28;20198;-68
2022/10/06 09:25:32;;;;;;;8.23;3.17;;;17.00;99.90;;;;;;4959414;28;20208;-70
2022/10/06 09:28:00;;;;;;;9.30;3.00;;;17.00;99.90;;;;;;4951433;28;20632;-69
2022/10/06 09:30:26;;;;;;;4.37;1.80;;;17.00;99.90;;;;;;4952389;28;20206;-69
2022/10/06 09:33:04;;;;;;;8.20;3.03;;;16.80;99.90;;;;;;4951139;28;20210;-68
2022/10/06 09:35:31;;;;;;;5.60;1.77;;;16.60;99.90;;;;;;4947944;28;20202;-70
2022/10/06 09:38:02;;;;;;;2.90;1.83;;;16.30;99.90;;;;;;4948483;28;20723;-69
2022/10/06 09:40:50;;;;;;;5.13;1.70;;;16.40;99.90;;;;;;4962969;28;20211;-68
2022/10/06 09:43:27;;;;;;;6.83;2.30;;;16.50;99.90;;;;;;4952835;28;20269;-68
2022/10/06 09:45:53;;;;;;;7.50;2.77;;;16.60;99.90;;;;;;4952437;28;20190;-67
2022/10/06 09:48:25;;;;;;;8.03;1.93;;;16.60;99.90;;;;;;4954631;28;20261;-68
2022/10/06 09:51:09;;;;;;;8.87;2.83;;;16.50;99.90;;;;;;4947536;28;20214;-67
2022/10/06 09:53:38;;;;;;;2.83;1.30;;;16.60;99.90;;;;;;4967494;28;20332;-67
2022/10/06 09:56:12;;;;;;;7.23;2.43;;;16.70;99.70;;;;;;4969539;28;20173;-67
2022/10/06 09:58:38;;;;;;;6.13;1.90;;;16.80;99.40;;;;;;4972376;28;20194;-67
2022/10/06 10:01:10;;;;;;;7.60;1.77;;;16.80;99.00;;;;;;4973650;28;20182;-66
2022/10/06 10:03:50;;;;;;;5.13;1.77;;;16.80;99.30;;;;;;4972963;28;20202;-67
2022/10/06 10:06:22;;;;;;;6.50;1.83;;;16.90;98.90;;;;;;4969312;28;20209;-67
2022/10/06 10:08:47;;;;;;;5.27;1.63;;;16.90;99.10;;;;;;4971642;28;20231;-67
2022/10/06 10:14:16;;;;;;;5.97;1.60;;;17.10;98.90;;;;;;4975670;28;20617;-66
2022/10/06 10:16:41;;;;;;;4.43;1.30;;;17.20;99.10;;;;;;4982144;28;20264;-68
2022/10/06 10:19:21;;;;;;;2.33;1.43;;;17.30;99.00;;;;;;4971484;28;20320;-68
2022/10/06 10:21:47;;;;;;;9.13;1.50;;;17.50;98.60;;;;;;4967779;28;20196;-67
2022/10/06 10:24:29;;;;;;;4.87;1.43;;;17.40;98.00;;;;;;4969237;28;20209;-75
2022/10/06 10:27:07;;;;;;;4.67;1.40;;;17.30;97.70;;;;;;4980726;28;20661;-72
2022/10/06 10:29:51;;;;;;;2.13;1.03;;;17.40;97.60;;;;;;4973351;28;20212;-72
2022/10/06 10:32:22;;;;;;;3.30;0.93;;;17.40;97.40;;;;;;4969798;28;20217;-75
2022/10/06 10:34:53;;;;;;;2.17;0.90;;;17.50;97.00;;;;;;4973791;28;20236;-72
2022/10/06 10:37:41;;;;;;;6.87;1.50;;;17.40;96.80;;;;;;4976366;28;20181;-73
2022/10/06 10:40:28;;;;;;;4.00;1.50;;;17.40;96.70;;;;;;4975832;28;20679;-73
2022/10/06 10:43:10;;;;;;;2.07;0.93;;;17.20;96.30;;;;;;4975977;28;20681;-73
2022/10/06 10:45:43;;;;;;;3.47;1.57;;;17.00;96.40;;;;;;4967520;28;20205;-73
2022/10/06 10:48:21;;;;;;;3.93;1.03;;;17.00;96.90;;;;;;4973949;28;20200;-73
2022/10/06 10:50:57;;;;;;;2.80;1.80;;;17.00;96.50;;;;;;4964724;28;20355;-74
2022/10/06 10:53:44;;;;;;;4.43;1.73;;;17.10;96.50;;;;;;4971584;28;20224;-73
2022/10/06 10:56:12;;;;;;;2.60;1.30;;;17.30;96.60;;;;;;4968570;28;20656;-74
2022/10/06 10:58:41;;;;;;;3.20;1.30;;;17.50;96.40;;;;;;4971629;28;20190;-76
2022/10/06 11:01:36;;;;;;;5.27;1.30;;;17.70;95.60;;;;;;4977681;28;20251;-75
2022/10/06 11:04:02;;;;;;;3.60;1.40;;;17.80;95.90;;;;;;4974882;28;20289;-75
2022/10/06 11:06:55;;;;;;;6.40;1.40;;;18.10;95.10;;;;;;4972461;28;20268;-76
2022/10/06 11:09:43;;;;;;;4.00;1.40;;;18.20;95.10;;;;;;4964648;28;20410;-74
2022/10/06 11:12:36;;;;;;;3.03;1.20;;;18.30;95.20;;;;;;4985637;28;20204;-76
2022/10/06 11:15:18;;;;;;;3.40;1.33;;;18.60;95.20;;;;;;4974994;28;20569;-74
2022/10/06 11:17:45;;;;;;;5.20;1.30;;;18.60;94.10;;;;;;4965552;28;20182;-75
2022/10/06 11:20:42;;;;;;;7.70;1.50;;;18.60;94.20;;;;;;4988386;28;20209;-74
2022/10/06 11:23:32;;;;;;;4.77;1.07;;;18.70;94.50;;;;;;4972995;28;20190;-74
2022/10/06 11:26:23;;;;;;;4.17;1.70;;;18.80;94.50;;;;;;4975992;28;20299;-74
2022/10/06 11:29:07;;;;;;;3.97;1.60;;;18.60;94.20;;;;;;4970823;28;20721;-74
2022/10/06 11:31:50;;;;;;;7.07;1.33;;;18.60;94.60;;;;;;4970098;28;20771;-75
2022/10/06 11:34:16;;;;;;;5.63;1.70;;;18.80;94.10;;;;;;4968331;28;20673;-74
2022/10/06 11:37:16;;;;;;;2.47;1.07;;;18.80;93.50;;;;;;4978123;28;20272;-74
2022/10/06 11:40:13;;;;;;;5.00;1.33;;;19.00;91.90;;;;;;4978398;28;20232;-74
2022/10/06 11:42:51;;;;;;;3.17;1.40;;;18.90;91.50;;;;;;4978503;28;20231;-76
2022/10/06 11:45:41;;;;;;;2.73;0.97;;;18.90;92.00;;;;;;4963777;28;20656;-72
2022/10/06 11:48:06;;;;;;;4.13;1.13;;;19.20;91.50;;;;;;4958206;28;20204;-74
2022/10/06 11:50:37;;;;;;;3.60;1.20;;;19.50;91.50;;;;;;4973366;28;20210;-68
2022/10/06 11:53:04;;;;;;;4.43;1.43;;;19.90;91.50;;;;;;4976900;28;20355;-67
2022/10/06 11:55:30;;;;;;;3.00;1.33;;;20.30;90.50;;;;;;4978249;28;20206;-67
2022/10/06 11:58:12;;;;;;;4.07;1.23;;;20.50;90.00;;;;;;4969336;28;20196;-67
2022/10/06 12:00:39;;;;;;;2.37;1.10;;;20.80;88.70;;;;;;4963875;28;20609;-67
2022/10/06 12:03:32;;;;;;;5.93;1.27;;;21.00;87.60;;;;;;4972987;28;20223;-68
2022/10/06 12:05:58;;;;;;;5.57;1.20;;;21.20;85.40;;;;;;4968868;28;20338;-69
2022/10/06 12:08:39;;;;;;;4.00;1.23;;;21.40;84.70;;;;;;4975375;28;20203;-69
2022/10/06 12:11:39;;;;;;;3.33;1.40;;;21.60;82.10;;;;;;4969408;28;20534;-73
2022/10/06 12:14:32;;;;;;;2.83;1.07;;;21.30;82.60;;;;;;4980911;28;20336;-73
2022/10/06 12:17:13;;;;;;;2.10;1.13;;;21.30;80.90;;;;;;4950516;28;20207;-74
2022/10/06 12:19:56;;;;;;;3.17;1.03;;;21.60;79.40;;;;;;4976674;28;20215;-66
2022/10/06 12:22:33;;;;;;;6.00;1.30;;;21.50;80.80;;;;;;4974823;28;20279;-65
2022/10/06 12:25:23;;;;;;;2.27;1.03;;;21.20;80.60;;;;;;4971266;28;20211;-67
2022/10/06 12:28:12;;;;;;;6.47;1.37;;;20.70;81.00;;;;;;4969675;28;20180;-66
2022/10/06 12:31:00;;;;;;;1.60;1.00;;;19.70;81.90;;;;;;4972488;28;20205;-65
2022/10/06 12:33:40;;;;;;;2.07;1.03;;;19.50;82.70;;;;;;4970991;28;20372;-70
2022/10/06 12:36:24;;;;;;;3.00;1.20;;;20.00;80.80;;;;;;4974252;28;20678;-72
2022/10/06 12:39:01;;;;;;;3.10;1.10;;;20.20;78.90;;;;;;4970004;28;20200;-69
2022/10/06 12:41:57;;;;;;;2.97;1.40;;;20.50;77.50;;;;;;4981559;28;20235;-70
2022/10/06 12:44:35;;;;;;;5.30;1.70;;;21.20;75.10;;;;;;4977815;28;20195;-70
2022/10/06 12:47:04;;;;;;;2.57;1.10;;;22.10;73.00;;;;;;4969281;28;20184;-69
2022/10/06 12:49:48;;;;;;;2.77;1.20;;;22.80;72.00;;;;;;4973264;28;20255;-69
2022/10/06 12:52:27;;;;;;;3.30;1.07;;;23.30;69.40;;;;;;4989491;28;20223;-69
2022/10/06 12:55:33;;;;;;;4.33;1.10;;;23.80;66.60;;;;;;4975679;28;20203;-68
2022/10/06 12:58:00;;;;;;;2.43;1.20;;;23.40;66.30;;;;;;4892259;29;20663;-68
2022/10/06 13:00:41;;;;;;;1.70;0.90;;;22.60;68.00;;;;;;4967520;28;20240;-68
2022/10/06 13:03:16;;;;;;;2.47;1.42;;;22.30;69.40;;;;;;4986927;28;20267;-68
2022/10/06 13:05:49;;;;;;;4.65;1.77;;;22.50;68.60;;;;;;4967127;28;20429;-68
2022/10/06 13:08:29;;;;;;;3.63;1.48;;;22.60;68.50;;;;;;4975357;28;20248;-69
2022/10/06 13:11:20;;;;;;;3.03;0.97;;;23.20;66.90;;;;;;4976140;28;20284;-68
2022/10/06 13:13:54;;;;;;;3.97;1.10;;;23.30;66.00;;;;;;4971806;28;20194;-69
2022/10/06 13:16:25;;;;;;;5.00;1.20;;;23.30;65.30;;;;;;4985030;28;20208;-68
2022/10/06 13:18:55;;;;;;;2.67;0.98;;;23.70;64.30;;;;;;4981739;28;20193;-66
2022/10/06 13:21:20;;;;;;;3.75;1.13;;;23.90;62.50;;;;;;4973694;28;20212;-68
2022/10/06 13:23:46;;;;;;;5.55;1.48;;;23.90;61.90;;;;;;4980868;28;20852;-69